Airfield :







YOU CAN JOIN US ON...

 
LOGIN :

Register | Disclaimer

   EN    FR    IT 

 









Legend :    VFR   Marginal VFR   IFR   Intensive IFR   Very Intensive IFR
Visi :
Ceiling :
>= 8 km
>= 3000ft
5 to 8 km
1000 to 3000 ft
1500m to 5 km
500 to 1000 ft
800 to 1500m
200 to 500 ft
< 800m
< 200 ft
Symbols :   Thunderstorms  Fog  Heavy snow  Heavy precipitations  Wind > 20 kt







- Airport Elevation : 1074 ft


KHIE - Mount Washington Regional

CURRENT METAR :
  • 171215Z AUTO 00000KT 6SM -RA BR SCT022 BKN045 OVC055 19/18 A2992 RMK AO2 P0004 T01940178

EXPIRED METARs :
  • 171205Z AUTO 00000KT 6SM -RA BR BKN022 BKN038 OVC048 19/18 A2992 RMK AO2 P0002 T01890178
  • 171152Z AUTO 00000KT 4SM -RA BR SCT024 BKN039 OVC050 19/17 A2992 RMK AO2 RAB25 SLP127 P0003 60003 70003 T01890172 10189 20161 53002
  • 171052Z AUTO 00000KT 10SM OVC050 18/17 A2990 RMK AO2 SLP122 T01830167
  • 170952Z AUTO 00000KT 10SM BKN070 OVC080 18/16 A2990 RMK AO2 SLP122 T01780161

TAF KHIE
Valid from the 17 at 12:00 until the 18 at 12:00 UTC


171217Z 1712/1812 28006KT 6SM SHRA OVC050
TEMPO 1712/1716 3SM RA BR BKN025 OVC050
FM171600 28007KT P6SM OVC025
TEMPO 1718/1720 5SM TSRA OVC030CB
FM172200 31006KT P6SM OVC035
KZBW FIR / North America



MET'MAP, your aeronautical weather chart ! - Copyright ORBIFLY December 2007 - Disclaimer

ORBIFLY MET'MAP TEAM :

Programming & Development : Alexandra Zaïnal
Concept & Development : Baudouin d'Aumeries
Co-Development & Prog : Marc-Olivier Méhu
Technical & hardware support : Manuel Goepfert

Contact : metmap@orbifly.com




SOURCES & CREDITS :

   NOAA